createdAt,value
2017-10-06T00:01:55.036Z,84.40
2017-10-06T00:04:23.156Z,84.70
2017-10-06T00:06:51.306Z,84.60
2017-10-06T00:09:20.201Z,84.70
2017-10-06T00:11:48.599Z,84.60
2017-10-06T00:14:16.736Z,84.30
2017-10-06T00:16:45.621Z,84.60
2017-10-06T00:19:14.547Z,84.30
2017-10-06T00:21:42.668Z,84.30
2017-10-06T00:24:10.818Z,84.30
2017-10-06T00:26:38.947Z,84.20
2017-10-06T00:29:07.328Z,84.30
2017-10-06T00:31:35.462Z,84.00
2017-10-06T00:34:03.590Z,83.90
2017-10-06T00:36:31.742Z,84.10
2017-10-06T00:38:59.871Z,83.90
2017-10-06T00:41:28.038Z,83.60
2017-10-06T00:43:56.167Z,83.70
2017-10-06T00:46:24.300Z,84.10
2017-10-06T00:48:53.239Z,84.10
2017-10-06T00:51:21.369Z,84.10
2017-10-06T00:53:50.277Z,84.90
2017-10-06T00:56:18.445Z,84.90
2017-10-06T00:58:46.580Z,84.70
2017-10-06T01:01:14.706Z,84.70
2017-10-06T01:03:42.868Z,84.80
2017-10-06T01:06:10.984Z,84.40
2017-10-06T01:08:39.304Z,84.30
2017-10-06T01:11:07.420Z,84.40
2017-10-06T01:13:35.535Z,84.30
2017-10-06T01:16:04.464Z,84.30
2017-10-06T01:18:32.603Z,84.10
2017-10-06T01:21:00.800Z,83.90
2017-10-06T01:23:28.947Z,84.00
2017-10-06T01:25:57.089Z,84.10
2017-10-06T01:28:25.245Z,84.30
2017-10-06T01:30:53.400Z,84.20
2017-10-06T01:33:21.770Z,84.10
2017-10-06T01:35:49.916Z,84.30
2017-10-06T01:38:18.037Z,84.40
2017-10-06T01:40:46.184Z,84.20
2017-10-06T01:43:14.311Z,84.20
2017-10-06T01:45:43.275Z,84.40
2017-10-06T01:48:11.407Z,84.40
2017-10-06T01:50:39.532Z,84.70
2017-10-06T01:53:07.664Z,84.40
2017-10-06T01:55:35.806Z,84.20
2017-10-06T01:58:03.967Z,84.20
2017-10-06T02:00:32.860Z,84.80
2017-10-06T02:03:01.037Z,85.30
2017-10-06T02:05:29.171Z,84.90
2017-10-06T02:07:57.297Z,84.00
2017-10-06T02:10:25.478Z,83.90
2017-10-06T02:12:53.623Z,84.20
2017-10-06T02:15:21.913Z,84.30
2017-10-06T02:17:50.052Z,84.40
2017-10-06T02:20:18.956Z,85.10
2017-10-06T02:22:47.109Z,85.10
2017-10-06T02:25:16.024Z,85.10
2017-10-06T02:27:44.176Z,85.10
2017-10-06T02:30:13.058Z,85.10
2017-10-06T02:32:42.001Z,85.50
2017-10-06T02:35:11.096Z,85.50
2017-10-06T02:37:39.226Z,85.20
2017-10-06T02:40:07.533Z,85.00
2017-10-06T02:42:35.664Z,84.90
2017-10-06T02:45:04.556Z,85.10
2017-10-06T02:47:33.474Z,84.30
2017-10-06T02:50:01.589Z,84.30
2017-10-06T02:52:29.763Z,84.30
2017-10-06T02:54:57.894Z,83.90
2017-10-06T02:57:26.025Z,84.00
2017-10-06T02:59:54.955Z,84.00
2017-10-06T03:02:23.090Z,84.00
2017-10-06T03:04:52.020Z,83.70
2017-10-06T03:07:20.156Z,83.60
2017-10-06T03:09:49.060Z,83.70
2017-10-06T03:12:17.217Z,83.60
2017-10-06T03:14:46.107Z,84.00
2017-10-06T03:17:15.017Z,83.50
2017-10-06T03:19:43.149Z,84.30
2017-10-06T03:22:12.217Z,83.60
2017-10-06T03:24:40.327Z,83.60
2017-10-06T03:27:09.227Z,84.70
2017-10-06T03:29:37.366Z,84.70
2017-10-06T03:32:05.491Z,84.80
2017-10-06T03:34:33.615Z,84.70
2017-10-06T03:37:02.764Z,84.60
2017-10-06T03:39:30.872Z,84.60
2017-10-06T03:41:59.001Z,84.70
2017-10-06T03:44:27.168Z,84.70
2017-10-06T03:46:55.293Z,84.90
2017-10-06T03:49:24.203Z,84.90
2017-10-06T03:51:53.096Z,84.60
2017-10-06T03:54:21.242Z,84.60
2017-10-06T03:56:50.129Z,84.20
2017-10-06T03:59:18.447Z,84.10
2017-10-06T04:01:46.561Z,84.10
2017-10-06T04:04:14.678Z,84.60
2017-10-06T04:06:42.844Z,84.70
2017-10-06T04:09:10.986Z,84.70
2017-10-06T04:11:39.152Z,85.00
2017-10-06T04:14:07.322Z,85.10
2017-10-06T04:16:35.460Z,85.20
2017-10-06T04:19:03.588Z,85.30
2017-10-06T04:21:32.523Z,85.20
2017-10-06T04:24:00.651Z,85.20
2017-10-06T04:26:29.594Z,85.00
2017-10-06T04:28:57.728Z,85.00
2017-10-06T04:31:25.876Z,85.10
2017-10-06T04:33:54.765Z,84.90
2017-10-06T04:36:23.676Z,84.60
2017-10-06T04:38:51.802Z,84.60
2017-10-06T04:41:20.643Z,84.80
2017-10-06T04:43:48.773Z,84.80
2017-10-06T04:46:16.945Z,84.90
2017-10-06T04:48:45.075Z,85.10
2017-10-06T04:51:13.192Z,85.30
2017-10-06T04:53:41.358Z,85.10
2017-10-06T04:56:09.495Z,84.90
2017-10-06T04:58:37.622Z,84.90
2017-10-06T05:01:06.546Z,85.20
2017-10-06T05:03:34.662Z,85.10
2017-10-06T05:06:02.819Z,85.20
2017-10-06T05:08:30.962Z,85.10
2017-10-06T05:10:59.121Z,85.00
2017-10-06T05:13:27.264Z,85.50
2017-10-06T05:15:56.172Z,84.50
2017-10-06T05:18:24.325Z,84.50
2017-10-06T05:20:53.228Z,84.30
2017-10-06T05:23:21.399Z,84.30
2017-10-06T05:25:49.510Z,84.10
2017-10-06T05:28:17.691Z,84.10
2017-10-06T05:30:45.905Z,83.90
2017-10-06T05:33:14.803Z,84.30
2017-10-06T05:35:43.071Z,84.30
2017-10-06T05:38:11.976Z,84.80
2017-10-06T05:40:40.106Z,84.90
2017-10-06T05:43:08.266Z,84.50
2017-10-06T05:45:36.393Z,84.50
2017-10-06T05:48:04.546Z,84.80
2017-10-06T05:50:33.452Z,85.20
2017-10-06T05:53:01.624Z,85.90
2017-10-06T05:55:29.767Z,85.00
2017-10-06T05:57:58.671Z,85.10
2017-10-06T06:00:27.587Z,85.10
2017-10-06T06:02:55.710Z,85.50
2017-10-06T06:05:23.874Z,84.90
2017-10-06T06:07:52.016Z,85.10
2017-10-06T06:10:20.168Z,85.20
2017-10-06T06:12:48.318Z,84.90
2017-10-06T06:15:17.214Z,84.60
2017-10-06T06:17:45.507Z,84.60
2017-10-06T06:20:13.624Z,83.70
2017-10-06T06:22:41.760Z,84.20
2017-10-06T06:25:09.904Z,84.20
2017-10-06T06:27:38.040Z,83.40
2017-10-06T06:30:06.366Z,82.50
2017-10-06T06:32:34.497Z,83.20
2017-10-06T06:35:03.389Z,82.40
2017-10-06T06:37:32.315Z,82.30
2017-10-06T06:40:00.446Z,82.20
2017-10-06T06:42:29.367Z,80.90
2017-10-06T06:44:57.533Z,80.90
2017-10-06T06:47:25.656Z,81.30
2017-10-06T06:49:53.913Z,80.90
2017-10-06T06:52:22.050Z,80.20
2017-10-06T06:54:50.173Z,80.30
2017-10-06T06:57:18.338Z,81.00
2017-10-06T06:59:46.491Z,80.30
2017-10-06T07:02:14.753Z,79.90
2017-10-06T07:04:42.886Z,79.70
2017-10-06T07:07:11.785Z,78.40
2017-10-06T07:09:40.765Z,79.00
2017-10-06T07:12:09.673Z,78.00
2017-10-06T07:14:37.816Z,78.00
2017-10-06T07:17:05.998Z,78.40
2017-10-06T07:19:34.897Z,79.80
2017-10-06T07:22:03.320Z,79.70
2017-10-06T07:24:31.479Z,80.20
2017-10-06T07:26:59.623Z,79.10
2017-10-06T07:29:27.776Z,79.50
2017-10-06T07:31:56.687Z,78.70
2017-10-06T07:34:24.910Z,78.70
2017-10-06T07:36:53.037Z,77.80
2017-10-06T07:39:21.166Z,78.70
2017-10-06T07:41:49.361Z,76.90
2017-10-06T07:44:18.248Z,76.00
2017-10-06T07:46:47.152Z,74.70
2017-10-06T07:49:15.310Z,74.70
2017-10-06T07:51:44.214Z,73.70
2017-10-06T07:54:13.248Z,71.90
2017-10-06T07:56:41.374Z,71.40
2017-10-06T07:59:10.275Z,71.20
2017-10-06T08:01:38.442Z,71.20
2017-10-06T08:04:06.634Z,70.10
2017-10-06T08:06:34.924Z,71.10
2017-10-06T08:09:03.040Z,70.60
2017-10-06T08:11:31.922Z,69.80
2017-10-06T08:14:00.068Z,69.90
2017-10-06T08:16:28.202Z,70.40
2017-10-06T08:18:56.331Z,69.30
2017-10-06T08:21:24.486Z,68.40
2017-10-06T08:23:52.623Z,68.80
2017-10-06T08:26:20.787Z,67.10
2017-10-06T08:28:48.917Z,67.30
2017-10-06T08:31:17.068Z,65.70
2017-10-06T08:33:46.020Z,63.10
2017-10-06T08:36:14.150Z,63.10
2017-10-06T08:38:42.292Z,64.10
2017-10-06T08:41:10.435Z,65.50
2017-10-06T08:43:38.594Z,63.50
2017-10-06T08:46:06.714Z,63.10
2017-10-06T08:48:34.974Z,62.90
2017-10-06T08:51:03.103Z,64.30
2017-10-06T08:53:31.987Z,63.60
2017-10-06T08:56:01.072Z,62.20
2017-10-06T08:58:29.972Z,62.10
2017-10-06T09:00:58.887Z,60.00
2017-10-06T09:03:27.053Z,59.90
2017-10-06T09:05:55.177Z,61.00
2017-10-06T09:08:23.306Z,58.50
2017-10-06T09:10:51.569Z,59.40
2017-10-06T09:13:19.751Z,57.40
2017-10-06T09:15:47.887Z,56.30
2017-10-06T09:18:16.807Z,58.10
2017-10-06T09:20:44.927Z,58.10
2017-10-06T09:23:13.157Z,58.50
2017-10-06T09:25:41.289Z,59.00
2017-10-06T09:28:10.177Z,60.40
2017-10-06T09:30:39.195Z,56.80
2017-10-06T09:33:07.322Z,56.80
2017-10-06T09:35:35.452Z,58.40
2017-10-06T09:38:03.826Z,58.10
2017-10-06T09:40:31.967Z,59.70
2017-10-06T09:43:00.866Z,59.10
2017-10-06T09:45:29.049Z,59.10
2017-10-06T09:47:57.191Z,57.80
2017-10-06T09:50:26.316Z,57.70
2017-10-06T09:52:54.469Z,57.70
2017-10-06T09:55:23.361Z,56.20
2017-10-06T09:57:51.534Z,56.20
2017-10-06T10:00:19.679Z,54.70
2017-10-06T10:02:47.814Z,56.40
2017-10-06T10:05:15.966Z,56.10
2017-10-06T10:07:44.101Z,56.80
2017-10-06T10:10:13.027Z,57.50
2017-10-06T10:12:41.148Z,57.50
2017-10-06T10:15:09.482Z,61.60
2017-10-06T10:17:37.619Z,59.90
2017-10-06T10:20:06.510Z,57.40
2017-10-06T10:22:35.434Z,57.50
2017-10-06T10:25:03.560Z,57.50
2017-10-06T10:27:32.472Z,58.10
2017-10-06T10:30:00.608Z,58.00
2017-10-06T10:32:28.727Z,60.70
2017-10-06T10:34:56.890Z,61.80
2017-10-06T10:37:25.012Z,61.30
2017-10-06T10:39:53.171Z,61.00
2017-10-06T10:42:21.296Z,62.10
2017-10-06T10:44:49.441Z,62.70
2017-10-06T10:47:17.578Z,63.70
2017-10-06T10:49:45.833Z,63.30
2017-10-06T10:52:13.980Z,60.20
2017-10-06T10:54:42.111Z,61.10
2017-10-06T10:57:10.380Z,60.90
2017-10-06T10:59:38.509Z,61.40
2017-10-06T11:02:06.657Z,62.00
2017-10-06T11:04:35.583Z,60.50
2017-10-06T11:07:03.722Z,60.50
2017-10-06T11:09:32.855Z,60.40
2017-10-06T11:12:01.004Z,60.50
2017-10-06T11:14:29.140Z,60.80
2017-10-06T11:16:57.555Z,60.10
2017-10-06T11:19:25.700Z,60.30
2017-10-06T11:21:54.606Z,62.00
2017-10-06T11:24:22.892Z,62.00
2017-10-06T11:26:51.036Z,60.90
2017-10-06T11:29:19.924Z,60.60
2017-10-06T11:31:48.956Z,59.20
2017-10-06T11:34:17.086Z,59.10
2017-10-06T11:36:46.141Z,59.80
2017-10-06T11:39:14.278Z,59.70
2017-10-06T11:41:42.408Z,62.00
2017-10-06T11:44:10.579Z,61.40
2017-10-06T11:46:38.808Z,60.60
2017-10-06T11:49:06.946Z,61.00
2017-10-06T11:51:36.075Z,60.40
2017-10-06T11:54:04.195Z,60.40
2017-10-06T11:56:32.320Z,61.90
2017-10-06T11:59:00.470Z,61.50
2017-10-06T12:01:28.597Z,61.80
2017-10-06T12:03:56.885Z,60.60
2017-10-06T12:06:25.080Z,62.30
2017-10-06T12:08:53.983Z,61.90
2017-10-06T12:11:23.091Z,61.90
2017-10-06T12:13:51.237Z,62.10
2017-10-06T12:16:20.148Z,61.60
2017-10-06T12:18:48.313Z,61.60
2017-10-06T12:21:16.433Z,61.20
2017-10-06T12:23:44.605Z,62.40
2017-10-06T12:26:13.498Z,60.60
2017-10-06T12:28:41.644Z,60.70
2017-10-06T12:31:09.761Z,61.40
2017-10-06T12:33:38.695Z,62.40
2017-10-06T12:36:06.866Z,62.50
2017-10-06T12:38:35.006Z,62.20
2017-10-06T12:41:03.942Z,61.70
2017-10-06T12:43:32.087Z,61.70
2017-10-06T12:46:00.240Z,60.10
2017-10-06T12:48:28.402Z,59.10
2017-10-06T12:50:57.317Z,58.70
2017-10-06T12:53:25.734Z,58.70
2017-10-06T12:55:53.881Z,59.50
2017-10-06T12:58:22.018Z,60.00
2017-10-06T13:00:50.177Z,58.80
2017-10-06T13:03:19.072Z,62.90
2017-10-06T13:05:47.993Z,65.50
2017-10-06T13:08:16.170Z,65.50
2017-10-06T13:10:44.304Z,67.40
2017-10-06T13:13:13.260Z,70.60
2017-10-06T13:15:41.411Z,70.50
2017-10-06T13:18:09.750Z,71.30
2017-10-06T13:20:38.641Z,73.10
2017-10-06T13:23:07.545Z,73.10
2017-10-06T13:25:35.839Z,73.00
2017-10-06T13:28:03.964Z,74.20
2017-10-06T13:30:32.848Z,77.00
2017-10-06T13:33:01.757Z,78.00
2017-10-06T13:35:29.879Z,77.80
2017-10-06T13:37:58.069Z,78.00
2017-10-06T13:40:26.206Z,78.80
2017-10-06T13:42:54.328Z,79.40
2017-10-06T13:45:23.336Z,81.80
2017-10-06T13:47:51.462Z,81.10
2017-10-06T13:50:19.592Z,81.90
2017-10-06T13:52:47.770Z,81.00
2017-10-06T13:55:15.894Z,81.80
2017-10-06T13:57:44.115Z,81.90
2017-10-06T14:00:12.247Z,80.90
2017-10-06T14:02:41.148Z,81.80
2017-10-06T14:05:09.313Z,81.80
2017-10-06T14:07:38.201Z,83.00
2017-10-06T14:10:07.220Z,83.40
2017-10-06T14:12:35.352Z,83.40
2017-10-06T14:15:03.486Z,84.00
2017-10-06T14:17:31.667Z,83.60
2017-10-06T14:19:59.915Z,82.70
2017-10-06T14:22:28.036Z,81.90
2017-10-06T14:24:56.476Z,82.30
2017-10-06T14:27:24.598Z,81.90
2017-10-06T14:29:53.485Z,81.70
2017-10-06T14:32:22.393Z,81.40
2017-10-06T14:34:50.523Z,81.40
2017-10-06T14:37:18.664Z,80.90
2017-10-06T14:39:46.790Z,81.60
2017-10-06T14:42:15.812Z,81.40
2017-10-06T14:44:43.928Z,81.40
2017-10-06T14:47:12.044Z,80.80
2017-10-06T14:49:40.438Z,81.10
2017-10-06T14:52:08.552Z,82.00
2017-10-06T14:54:36.693Z,83.20
2017-10-06T14:57:04.938Z,82.40
2017-10-06T14:59:33.063Z,82.30
2017-10-06T15:02:01.298Z,82.40
2017-10-06T15:04:29.450Z,82.50
2017-10-06T15:06:57.579Z,82.70
2017-10-06T15:09:26.018Z,84.10
2017-10-06T15:11:54.135Z,83.10
2017-10-06T15:14:22.253Z,82.60
2017-10-06T15:16:50.411Z,83.10
2017-10-06T15:19:18.536Z,83.10
2017-10-06T15:21:46.657Z,83.30
2017-10-06T15:24:14.983Z,83.90
2017-10-06T15:26:43.121Z,84.40
2017-10-06T15:29:11.294Z,83.60
2017-10-06T15:31:39.612Z,83.70
2017-10-06T15:34:07.738Z,83.50
2017-10-06T15:36:35.869Z,84.00
2017-10-06T15:39:04.815Z,84.30
2017-10-06T15:41:33.073Z,84.40
2017-10-06T15:44:01.194Z,84.20
2017-10-06T15:46:29.370Z,84.10
2017-10-06T15:48:57.496Z,84.40
2017-10-06T15:51:25.661Z,84.40
2017-10-06T15:53:53.793Z,84.20
2017-10-06T15:56:22.683Z,83.90
2017-10-06T15:58:51.624Z,83.70
2017-10-06T16:01:19.750Z,83.70
2017-10-06T16:03:48.638Z,84.20
2017-10-06T16:06:17.661Z,84.30
2017-10-06T16:08:45.768Z,84.30
2017-10-06T16:11:14.658Z,84.00
2017-10-06T16:13:42.800Z,84.70
2017-10-06T16:16:10.940Z,84.00
2017-10-06T16:18:39.235Z,84.30
2017-10-06T16:21:07.578Z,84.40
2017-10-06T16:23:36.462Z,84.10
2017-10-06T16:26:05.375Z,84.00
2017-10-06T16:28:33.515Z,84.00
2017-10-06T16:31:01.677Z,83.80
2017-10-06T16:33:29.803Z,84.10
2017-10-06T16:35:57.926Z,84.00
2017-10-06T16:38:26.095Z,84.10
2017-10-06T16:40:54.224Z,84.10
2017-10-06T16:43:22.365Z,84.30
2017-10-06T16:45:51.259Z,84.30
2017-10-06T16:48:19.394Z,84.30
2017-10-06T16:50:47.550Z,84.50
2017-10-06T16:53:15.675Z,84.70
2017-10-06T16:55:43.936Z,85.00
2017-10-06T16:58:12.820Z,85.30
2017-10-06T17:00:41.734Z,85.30
2017-10-06T17:03:09.890Z,85.20
2017-10-06T17:05:38.784Z,85.10
2017-10-06T17:08:07.705Z,84.80
2017-10-06T17:10:35.843Z,84.80
2017-10-06T17:13:04.864Z,85.00
2017-10-06T17:15:33.127Z,85.00
2017-10-06T17:18:01.597Z,84.90
2017-10-06T17:20:29.718Z,84.80
2017-10-06T17:22:58.816Z,85.50
2017-10-06T17:25:26.945Z,85.60
2017-10-06T17:27:55.340Z,85.40
2017-10-06T17:30:24.357Z,85.00
2017-10-06T17:32:52.480Z,85.70
2017-10-06T17:35:20.643Z,85.00
2017-10-06T17:37:48.782Z,85.40
2017-10-06T17:40:17.009Z,84.60
2017-10-06T17:42:45.178Z,84.70
2017-10-06T17:45:13.337Z,85.10
2017-10-06T17:47:41.606Z,84.50
2017-10-06T17:50:09.758Z,84.60
2017-10-06T17:52:38.712Z,85.00
2017-10-06T17:55:06.886Z,85.10
2017-10-06T17:57:35.014Z,86.00
2017-10-06T18:00:03.763Z,85.00
2017-10-06T18:02:32.704Z,84.90
2017-10-06T18:05:01.418Z,85.00
2017-10-06T18:07:30.180Z,84.70
2017-10-06T18:09:59.361Z,84.60
2017-10-06T18:12:28.904Z,84.60
2017-10-06T18:14:58.437Z,84.50
2017-10-06T18:17:26.962Z,84.60
2017-10-06T18:19:55.617Z,84.40
2017-10-06T18:22:25.067Z,84.70
2017-10-06T18:24:54.665Z,84.70
2017-10-06T18:27:24.275Z,84.80
2017-10-06T18:29:54.984Z,85.00
2017-10-06T18:32:25.414Z,84.80
2017-10-06T18:34:56.242Z,84.60
2017-10-06T18:37:27.017Z,84.80
2017-10-06T18:39:56.667Z,84.80
2017-10-06T18:42:27.445Z,84.20
2017-10-06T18:44:57.288Z,84.30
2017-10-06T18:47:27.474Z,84.50
2017-10-06T18:49:57.383Z,84.50
2017-10-06T18:52:27.647Z,84.30
2017-10-06T18:54:57.460Z,84.70
2017-10-06T18:57:27.561Z,84.80
2017-10-06T18:59:57.475Z,85.10
2017-10-06T19:02:38.913Z,85.70
2017-10-06T19:05:08.509Z,84.80
2017-10-06T19:07:38.836Z,84.90
2017-10-06T19:10:08.903Z,84.90
2017-10-06T19:12:38.332Z,85.00
2017-10-06T19:15:08.371Z,85.10
2017-10-06T19:17:38.496Z,85.00
2017-10-06T19:20:07.810Z,85.00
2017-10-06T19:22:37.187Z,85.00
2017-10-06T19:25:06.654Z,85.00
2017-10-06T19:27:36.558Z,86.00
2017-10-06T19:30:06.557Z,86.00
2017-10-06T19:32:36.555Z,85.80
2017-10-06T19:35:06.683Z,85.50
2017-10-06T19:37:36.168Z,85.20
2017-10-06T19:40:06.462Z,85.10
2017-10-06T19:42:36.696Z,85.30
2017-10-06T19:45:06.960Z,85.30
2017-10-06T19:47:37.771Z,85.90
2017-10-06T19:50:07.176Z,85.30
2017-10-06T19:52:36.629Z,85.60
2017-10-06T19:55:06.993Z,85.80
2017-10-06T19:57:36.296Z,85.80
2017-10-06T20:00:06.888Z,85.80
2017-10-06T20:02:36.207Z,85.70
2017-10-06T20:05:05.529Z,85.40
2017-10-06T20:07:35.107Z,85.30
2017-10-06T20:10:04.414Z,85.30
2017-10-06T20:12:33.737Z,85.70
2017-10-06T20:15:03.157Z,85.60
2017-10-06T20:17:32.499Z,85.20
2017-10-06T20:20:01.896Z,85.40
2017-10-06T20:22:31.196Z,85.70
2017-10-06T20:25:02.291Z,86.30
2017-10-06T20:27:31.503Z,86.30
2017-10-06T20:30:01.353Z,86.10
2017-10-06T20:32:32.128Z,85.80
2017-10-06T20:35:02.066Z,85.80
2017-10-06T20:37:31.937Z,85.90
2017-10-06T20:40:01.989Z,86.30
2017-10-06T20:42:31.494Z,86.30
2017-10-06T20:45:00.933Z,86.10
2017-10-06T20:47:30.292Z,86.20
2017-10-06T20:49:59.600Z,86.00
2017-10-06T20:52:28.841Z,85.40
2017-10-06T20:54:58.536Z,85.20
2017-10-06T20:57:27.786Z,85.10
2017-10-06T20:59:56.979Z,85.20
2017-10-06T21:02:26.322Z,85.30
2017-10-06T21:04:56.208Z,85.40
2017-10-06T21:07:25.436Z,84.70
2017-10-06T21:09:54.955Z,85.10
2017-10-06T21:12:24.770Z,85.30
2017-10-06T21:14:53.229Z,85.30
2017-10-06T21:17:21.432Z,85.00
2017-10-06T21:19:49.608Z,85.40
2017-10-06T21:22:17.738Z,84.80
2017-10-06T21:24:45.917Z,84.70
2017-10-06T21:27:14.056Z,85.40
2017-10-06T21:29:42.946Z,85.00
2017-10-06T21:32:11.881Z,85.10
2017-10-06T21:34:40.005Z,85.10
2017-10-06T21:37:09.044Z,85.10
2017-10-06T21:39:37.173Z,85.10
2017-10-06T21:42:06.074Z,85.30
2017-10-06T21:44:34.226Z,85.30
2017-10-06T21:47:03.128Z,85.90
2017-10-06T21:49:31.282Z,85.80
2017-10-06T21:52:00.178Z,85.30
2017-10-06T21:54:29.149Z,85.50
2017-10-06T21:56:57.288Z,85.50
2017-10-06T21:59:26.265Z,85.40
2017-10-06T22:01:54.417Z,85.40
2017-10-06T22:04:22.609Z,85.30
2017-10-06T22:06:50.861Z,84.90
2017-10-06T22:09:18.985Z,85.30
2017-10-06T22:11:47.096Z,85.30
2017-10-06T22:14:16.010Z,85.10
2017-10-06T22:16:44.134Z,85.10
2017-10-06T22:19:12.380Z,85.30
2017-10-06T22:21:40.497Z,85.40
2017-10-06T22:24:09.434Z,85.40
2017-10-06T22:26:37.694Z,85.40
2017-10-06T22:29:05.826Z,85.40
2017-10-06T22:31:34.722Z,85.00
2017-10-06T22:34:03.644Z,85.00
2017-10-06T22:36:31.757Z,85.00
2017-10-06T22:39:00.181Z,85.60
2017-10-06T22:41:28.295Z,85.00
2017-10-06T22:43:56.416Z,84.90
2017-10-06T22:46:24.542Z,85.60
2017-10-06T22:48:52.672Z,85.00
2017-10-06T22:51:20.803Z,85.00
2017-10-06T22:53:48.908Z,84.90
2017-10-06T22:56:17.027Z,85.10
2017-10-06T22:58:45.159Z,85.00
2017-10-06T23:01:13.265Z,85.40
2017-10-06T23:03:41.696Z,85.40
2017-10-06T23:06:09.813Z,84.80
2017-10-06T23:08:37.933Z,85.10
2017-10-06T23:11:06.121Z,85.30
2017-10-06T23:13:34.237Z,85.30
2017-10-06T23:16:02.485Z,85.10
2017-10-06T23:18:30.592Z,85.10
2017-10-06T23:20:58.709Z,85.20
2017-10-06T23:23:26.843Z,85.20
2017-10-06T23:25:55.730Z,85.60
2017-10-06T23:28:24.756Z,84.90
2017-10-06T23:30:52.881Z,84.90
2017-10-06T23:33:20.998Z,85.40
2017-10-06T23:35:49.154Z,85.30
2017-10-06T23:38:17.273Z,84.90
2017-10-06T23:40:45.426Z,84.90
2017-10-06T23:43:13.544Z,84.80
2017-10-06T23:45:41.684Z,85.10
2017-10-06T23:48:10.578Z,85.20
2017-10-06T23:50:39.485Z,85.10
2017-10-06T23:53:07.597Z,85.10
2017-10-06T23:55:35.973Z,84.80
2017-10-06T23:58:04.088Z,84.90
